sensor_id;sensor_type;location;lat;lon;timestamp;temperature;humidity
17762;DHT22;9005;48.838;10.112;2023-05-07T00:01:40;11.80;99.90
17762;DHT22;9005;48.838;10.112;2023-05-07T00:04:07;11.90;99.90
17762;DHT22;9005;48.838;10.112;2023-05-07T00:06:33;11.80;99.90
17762;DHT22;9005;48.838;10.112;2023-05-07T00:09:01;11.90;99.90
17762;DHT22;9005;48.838;10.112;2023-05-07T00:11:28;11.90;99.90
17762;DHT22;9005;48.838;10.112;2023-05-07T00:13:55;12.00;99.90
17762;DHT22;9005;48.838;10.112;2023-05-07T00:16:21;12.00;99.90
17762;DHT22;9005;48.838;10.112;2023-05-07T00:18:50;12.00;99.90
17762;DHT22;9005;48.838;10.112;2023-05-07T00:21:16;12.00;99.90
17762;DHT22;9005;48.838;10.112;2023-05-07T00:23:43;12.00;99.90
17762;DHT22;9005;48.838;10.112;2023-05-07T00:26:10;12.00;99.90
17762;DHT22;9005;48.838;10.112;2023-05-07T00:28:36;12.00;99.90
17762;DHT22;9005;48.838;10.112;2023-05-07T00:31:03;12.00;99.90
17762;DHT22;9005;48.838;10.112;2023-05-07T00:33:30;12.00;99.90
17762;DHT22;9005;48.838;10.112;2023-05-07T00:35:58;11.90;99.90
17762;DHT22;9005;48.838;10.112;2023-05-07T00:38:26;11.90;99.90
17762;DHT22;9005;48.838;10.112;2023-05-07T00:40:53;11.90;99.90
17762;DHT22;9005;48.838;10.112;2023-05-07T00:43:19;11.90;99.90
17762;DHT22;9005;48.838;10.112;2023-05-07T00:45:46;11.90;99.90
17762;DHT22;9005;48.838;10.112;2023-05-07T00:48:13;11.90;99.90
17762;DHT22;9005;48.838;10.112;2023-05-07T00:50:40;11.90;99.90
17762;DHT22;9005;48.838;10.112;2023-05-07T00:53:08;11.90;99.90
17762;DHT22;9005;48.838;10.112;2023-05-07T00:55:35;11.90;99.90
17762;DHT22;9005;48.838;10.112;2023-05-07T00:58:02;11.90;99.90
17762;DHT22;9005;48.838;10.112;2023-05-07T01:00:29;11.90;99.90
17762;DHT22;9005;48.838;10.112;2023-05-07T01:02:56;11.90;99.90
17762;DHT22;9005;48.838;10.112;2023-05-07T01:05:24;11.80;99.90
17762;DHT22;9005;48.838;10.112;2023-05-07T01:07:52;11.80;99.90
17762;DHT22;9005;48.838;10.112;2023-05-07T01:10:22;11.80;99.90
17762;DHT22;9005;48.838;10.112;2023-05-07T01:12:49;11.80;99.90
17762;DHT22;9005;48.838;10.112;2023-05-07T01:15:17;11.70;99.90
17762;DHT22;9005;48.838;10.112;2023-05-07T01:17:44;11.70;99.90
17762;DHT22;9005;48.838;10.112;2023-05-07T01:20:11;11.60;99.90
17762;DHT22;9005;48.838;10.112;2023-05-07T01:22:40;11.50;99.90
17762;DHT22;9005;48.838;10.112;2023-05-07T01:25:09;11.50;99.90
17762;DHT22;9005;48.838;10.112;2023-05-07T01:27:36;11.40;99.90
17762;DHT22;9005;48.838;10.112;2023-05-07T01:30:03;11.40;99.90
17762;DHT22;9005;48.838;10.112;2023-05-07T01:32:33;11.40;99.90
17762;DHT22;9005;48.838;10.112;2023-05-07T01:35:04;11.40;99.90
17762;DHT22;9005;48.838;10.112;2023-05-07T01:37:32;11.40;99.90
17762;DHT22;9005;48.838;10.112;2023-05-07T01:40:01;11.50;99.90
17762;DHT22;9005;48.838;10.112;2023-05-07T01:42:29;11.50;99.90
17762;DHT22;9005;48.838;10.112;2023-05-07T01:44:56;11.60;99.90
17762;DHT22;9005;48.838;10.112;2023-05-07T01:47:23;11.60;99.90
17762;DHT22;9005;48.838;10.112;2023-05-07T01:49:51;11.50;99.90
17762;DHT22;9005;48.838;10.112;2023-05-07T01:52:18;11.50;99.90
17762;DHT22;9005;48.838;10.112;2023-05-07T01:54:45;11.50;99.90
17762;DHT22;9005;48.838;10.112;2023-05-07T01:57:13;11.50;99.90
17762;DHT22;9005;48.838;10.112;2023-05-07T01:59:39;11.60;99.90
17762;DHT22;9005;48.838;10.112;2023-05-07T02:02:06;11.70;99.90
17762;DHT22;9005;48.838;10.112;2023-05-07T02:04:33;11.70;99.90
17762;DHT22;9005;48.838;10.112;2023-05-07T02:06:59;11.70;99.90
17762;DHT22;9005;48.838;10.112;2023-05-07T02:09:26;11.70;99.90
17762;DHT22;9005;48.838;10.112;2023-05-07T02:11:53;11.60;99.90
17762;DHT22;9005;48.838;10.112;2023-05-07T02:14:21;11.60;99.90
17762;DHT22;9005;48.838;10.112;2023-05-07T02:16:48;11.60;99.90
17762;DHT22;9005;48.838;10.112;2023-05-07T02:19:14;11.60;99.90
17762;DHT22;9005;48.838;10.112;2023-05-07T02:21:41;11.60;99.90
17762;DHT22;9005;48.838;10.112;2023-05-07T02:24:08;11.60;99.90
17762;DHT22;9005;48.838;10.112;2023-05-07T02:26:35;11.50;99.90
17762;DHT22;9005;48.838;10.112;2023-05-07T02:29:01;11.50;99.90
17762;DHT22;9005;48.838;10.112;2023-05-07T02:31:29;11.50;99.90
17762;DHT22;9005;48.838;10.112;2023-05-07T02:33:56;11.50;99.90
17762;DHT22;9005;48.838;10.112;2023-05-07T02:36:23;11.50;99.90
17762;DHT22;9005;48.838;10.112;2023-05-07T02:38:49;11.50;99.90
17762;DHT22;9005;48.838;10.112;2023-05-07T02:41:16;11.60;99.90
17762;DHT22;9005;48.838;10.112;2023-05-07T02:43:43;11.60;99.90
17762;DHT22;9005;48.838;10.112;2023-05-07T02:46:10;11.60;99.90
17762;DHT22;9005;48.838;10.112;2023-05-07T02:48:38;11.60;99.90
17762;DHT22;9005;48.838;10.112;2023-05-07T02:51:04;11.60;99.90
17762;DHT22;9005;48.838;10.112;2023-05-07T02:53:31;11.50;99.90
17762;DHT22;9005;48.838;10.112;2023-05-07T02:55:59;11.50;99.90
17762;DHT22;9005;48.838;10.112;2023-05-07T02:58:26;11.40;99.90
17762;DHT22;9005;48.838;10.112;2023-05-07T03:00:53;11.30;99.90
17762;DHT22;9005;48.838;10.112;2023-05-07T03:03:21;11.30;99.90
17762;DHT22;9005;48.838;10.112;2023-05-07T03:05:49;11.20;99.90
17762;DHT22;9005;48.838;10.112;2023-05-07T03:08:15;11.10;99.90
17762;DHT22;9005;48.838;10.112;2023-05-07T03:10:42;11.10;99.90
17762;DHT22;9005;48.838;10.112;2023-05-07T03:13:09;10.90;99.90
17762;DHT22;9005;48.838;10.112;2023-05-07T03:15:35;10.90;99.90
17762;DHT22;9005;48.838;10.112;2023-05-07T03:18:03;11.00;99.90
17762;DHT22;9005;48.838;10.112;2023-05-07T03:20:29;11.00;99.90
17762;DHT22;9005;48.838;10.112;2023-05-07T03:22:57;11.00;99.90
17762;DHT22;9005;48.838;10.112;2023-05-07T03:25:24;10.90;99.90
17762;DHT22;9005;48.838;10.112;2023-05-07T03:27:51;10.90;99.90
17762;DHT22;9005;48.838;10.112;2023-05-07T03:30:18;11.00;99.90
17762;DHT22;9005;48.838;10.112;2023-05-07T03:32:45;11.00;99.90
17762;DHT22;9005;48.838;10.112;2023-05-07T03:37:39;10.90;99.90
17762;DHT22;9005;48.838;10.112;2023-05-07T03:40:08;11.00;99.90
17762;DHT22;9005;48.838;10.112;2023-05-07T03:42:36;11.00;99.90
17762;DHT22;9005;48.838;10.112;2023-05-07T03:45:03;11.00;99.90
17762;DHT22;9005;48.838;10.112;2023-05-07T03:47:30;11.00;99.90
17762;DHT22;9005;48.838;10.112;2023-05-07T03:49:57;11.00;99.90
17762;DHT22;9005;48.838;10.112;2023-05-07T03:52:24;11.00;99.90
17762;DHT22;9005;48.838;10.112;2023-05-07T03:54:52;11.00;99.90
17762;DHT22;9005;48.838;10.112;2023-05-07T03:57:20;11.00;99.90
17762;DHT22;9005;48.838;10.112;2023-05-07T03:59:47;11.00;99.90
17762;DHT22;9005;48.838;10.112;2023-05-07T04:02:13;11.00;99.90
17762;DHT22;9005;48.838;10.112;2023-05-07T04:04:40;11.00;99.90
17762;DHT22;9005;48.838;10.112;2023-05-07T04:07:07;10.90;99.90
17762;DHT22;9005;48.838;10.112;2023-05-07T04:09:33;10.90;99.90
17762;DHT22;9005;48.838;10.112;2023-05-07T04:12:00;10.90;99.90
17762;DHT22;9005;48.838;10.112;2023-05-07T04:14:29;10.90;99.90
17762;DHT22;9005;48.838;10.112;2023-05-07T04:16:57;10.20;99.90
17762;DHT22;9005;48.838;10.112;2023-05-07T04:19:24;11.10;99.90
17762;DHT22;9005;48.838;10.112;2023-05-07T04:21:51;11.10;99.90
17762;DHT22;9005;48.838;10.112;2023-05-07T04:24:17;11.10;99.90
17762;DHT22;9005;48.838;10.112;2023-05-07T04:29:11;11.10;99.90
17762;DHT22;9005;48.838;10.112;2023-05-07T04:31:39;11.10;99.90
17762;DHT22;9005;48.838;10.112;2023-05-07T04:34:06;11.20;99.90
17762;DHT22;9005;48.838;10.112;2023-05-07T04:36:32;11.30;99.90
17762;DHT22;9005;48.838;10.112;2023-05-07T04:38:59;11.30;99.90
17762;DHT22;9005;48.838;10.112;2023-05-07T04:41:26;11.50;99.90
17762;DHT22;9005;48.838;10.112;2023-05-07T04:43:53;11.60;99.90
17762;DHT22;9005;48.838;10.112;2023-05-07T04:46:19;11.60;99.90
17762;DHT22;9005;48.838;10.112;2023-05-07T04:48:47;11.70;99.90
17762;DHT22;9005;48.838;10.112;2023-05-07T04:51:14;11.80;99.90
17762;DHT22;9005;48.838;10.112;2023-05-07T04:53:41;11.80;99.90
17762;DHT22;9005;48.838;10.112;2023-05-07T04:56:08;11.80;99.90
17762;DHT22;9005;48.838;10.112;2023-05-07T04:58:35;11.90;99.90
17762;DHT22;9005;48.838;10.112;2023-05-07T05:01:01;11.90;99.90
17762;DHT22;9005;48.838;10.112;2023-05-07T05:03:28;11.90;99.90
17762;DHT22;9005;48.838;10.112;2023-05-07T05:05:56;12.00;99.90
17762;DHT22;9005;48.838;10.112;2023-05-07T05:08:24;12.00;99.90
17762;DHT22;9005;48.838;10.112;2023-05-07T05:10:52;12.10;99.90
17762;DHT22;9005;48.838;10.112;2023-05-07T05:13:18;12.20;99.90
17762;DHT22;9005;48.838;10.112;2023-05-07T05:15:46;12.30;99.90
17762;DHT22;9005;48.838;10.112;2023-05-07T05:18:13;12.40;99.90
17762;DHT22;9005;48.838;10.112;2023-05-07T05:20:39;12.40;99.90
17762;DHT22;9005;48.838;10.112;2023-05-07T05:23:08;12.50;99.90
17762;DHT22;9005;48.838;10.112;2023-05-07T05:25:34;12.60;99.90
17762;DHT22;9005;48.838;10.112;2023-05-07T05:28:02;12.60;99.90
17762;DHT22;9005;48.838;10.112;2023-05-07T05:30:29;12.60;99.90
17762;DHT22;9005;48.838;10.112;2023-05-07T05:32:56;12.60;99.90
17762;DHT22;9005;48.838;10.112;2023-05-07T05:35:22;12.60;99.90
17762;DHT22;9005;48.838;10.112;2023-05-07T05:37:49;12.60;99.90
17762;DHT22;9005;48.838;10.112;2023-05-07T05:40:17;12.60;99.90
17762;DHT22;9005;48.838;10.112;2023-05-07T05:42:44;12.60;99.90
17762;DHT22;9005;48.838;10.112;2023-05-07T05:45:11;12.60;99.90
17762;DHT22;9005;48.838;10.112;2023-05-07T05:47:38;12.70;99.90
17762;DHT22;9005;48.838;10.112;2023-05-07T05:50:06;12.70;99.90
17762;DHT22;9005;48.838;10.112;2023-05-07T05:52:33;12.70;99.90
17762;DHT22;9005;48.838;10.112;2023-05-07T05:55:00;12.80;99.90
17762;DHT22;9005;48.838;10.112;2023-05-07T05:57:28;12.80;99.90
17762;DHT22;9005;48.838;10.112;2023-05-07T05:59:55;12.80;99.90
17762;DHT22;9005;48.838;10.112;2023-05-07T06:02:21;12.80;99.90
17762;DHT22;9005;48.838;10.112;2023-05-07T06:04:48;12.80;99.90
17762;DHT22;9005;48.838;10.112;2023-05-07T06:07:15;12.80;99.90
17762;DHT22;9005;48.838;10.112;2023-05-07T06:09:42;12.90;99.90
17762;DHT22;9005;48.838;10.112;2023-05-07T06:12:08;12.90;99.90
17762;DHT22;9005;48.838;10.112;2023-05-07T06:14:36;12.70;99.90
17762;DHT22;9005;48.838;10.112;2023-05-07T06:17:03;13.20;99.90
17762;DHT22;9005;48.838;10.112;2023-05-07T06:19:30;13.40;99.90
17762;DHT22;9005;48.838;10.112;2023-05-07T06:21:57;13.50;99.90
17762;DHT22;9005;48.838;10.112;2023-05-07T06:24:24;13.70;99.90
17762;DHT22;9005;48.838;10.112;2023-05-07T06:26:51;13.70;99.90
17762;DHT22;9005;48.838;10.112;2023-05-07T06:29:18;13.80;99.90
17762;DHT22;9005;48.838;10.112;2023-05-07T06:31:46;13.80;99.90
17762;DHT22;9005;48.838;10.112;2023-05-07T06:34:12;14.00;99.90
17762;DHT22;9005;48.838;10.112;2023-05-07T06:36:40;14.00;99.90
17762;DHT22;9005;48.838;10.112;2023-05-07T06:39:07;14.10;99.90
17762;DHT22;9005;48.838;10.112;2023-05-07T06:41:34;14.30;99.90
17762;DHT22;9005;48.838;10.112;2023-05-07T06:44:01;14.50;99.90
17762;DHT22;9005;48.838;10.112;2023-05-07T06:46:27;14.80;99.90
17762;DHT22;9005;48.838;10.112;2023-05-07T06:48:56;15.00;99.90
17762;DHT22;9005;48.838;10.112;2023-05-07T06:51:23;15.20;99.90
17762;DHT22;9005;48.838;10.112;2023-05-07T06:53:49;15.50;99.90
17762;DHT22;9005;48.838;10.112;2023-05-07T06:56:16;15.80;99.90
17762;DHT22;9005;48.838;10.112;2023-05-07T06:58:43;16.10;99.90
17762;DHT22;9005;48.838;10.112;2023-05-07T07:01:10;16.40;99.90
17762;DHT22;9005;48.838;10.112;2023-05-07T07:03:36;16.60;99.90
17762;DHT22;9005;48.838;10.112;2023-05-07T07:06:05;16.80;99.90
17762;DHT22;9005;48.838;10.112;2023-05-07T07:08:31;17.20;99.90
17762;DHT22;9005;48.838;10.112;2023-05-07T07:10:58;17.20;99.90
17762;DHT22;9005;48.838;10.112;2023-05-07T07:13:25;17.30;99.90
17762;DHT22;9005;48.838;10.112;2023-05-07T07:15:52;17.50;99.90
17762;DHT22;9005;48.838;10.112;2023-05-07T07:18:19;17.60;99.90
17762;DHT22;9005;48.838;10.112;2023-05-07T07:20:45;17.70;99.90
17762;DHT22;9005;48.838;10.112;2023-05-07T07:23:14;17.80;99.90
17762;DHT22;9005;48.838;10.112;2023-05-07T07:25:41;17.80;99.90
17762;DHT22;9005;48.838;10.112;2023-05-07T07:28:07;17.90;99.90
17762;DHT22;9005;48.838;10.112;2023-05-07T07:30:34;17.90;99.90
17762;DHT22;9005;48.838;10.112;2023-05-07T07:33:01;17.80;99.90
17762;DHT22;9005;48.838;10.112;2023-05-07T07:35:28;17.90;99.90
17762;DHT22;9005;48.838;10.112;2023-05-07T07:37:55;17.90;99.90
17762;DHT22;9005;48.838;10.112;2023-05-07T07:40:24;17.90;99.90
17762;DHT22;9005;48.838;10.112;2023-05-07T07:42:50;18.00;99.90
17762;DHT22;9005;48.838;10.112;2023-05-07T07:45:17;18.10;99.90
17762;DHT22;9005;48.838;10.112;2023-05-07T07:47:44;18.20;99.90
17762;DHT22;9005;48.838;10.112;2023-05-07T07:50:11;18.30;99.90
17762;DHT22;9005;48.838;10.112;2023-05-07T07:52:38;18.40;99.90
17762;DHT22;9005;48.838;10.112;2023-05-07T07:55:06;18.50;99.90
17762;DHT22;9005;48.838;10.112;2023-05-07T07:57:34;18.60;99.90
17762;DHT22;9005;48.838;10.112;2023-05-07T08:00:01;18.80;99.90
17762;DHT22;9005;48.838;10.112;2023-05-07T08:02:27;19.00;99.90
17762;DHT22;9005;48.838;10.112;2023-05-07T08:04:54;19.10;99.90
17762;DHT22;9005;48.838;10.112;2023-05-07T08:07:21;19.30;99.90
17762;DHT22;9005;48.838;10.112;2023-05-07T08:09:48;19.60;99.90
17762;DHT22;9005;48.838;10.112;2023-05-07T08:12:15;19.70;99.90
17762;DHT22;9005;48.838;10.112;2023-05-07T08:14:43;20.00;99.80
17762;DHT22;9005;48.838;10.112;2023-05-07T08:17:10;20.10;97.10
17762;DHT22;9005;48.838;10.112;2023-05-07T08:19:36;20.10;95.20
17762;DHT22;9005;48.838;10.112;2023-05-07T08:22:03;20.10;96.60
17762;DHT22;9005;48.838;10.112;2023-05-07T08:24:31;20.10;95.40
17762;DHT22;9005;48.838;10.112;2023-05-07T08:26:57;20.10;95.60
17762;DHT22;9005;48.838;10.112;2023-05-07T08:29:24;20.10;95.70
17762;DHT22;9005;48.838;10.112;2023-05-07T08:31:52;20.20;94.10
17762;DHT22;9005;48.838;10.112;2023-05-07T08:34:21;20.30;95.10
17762;DHT22;9005;48.838;10.112;2023-05-07T08:36:48;20.40;94.30
17762;DHT22;9005;48.838;10.112;2023-05-07T08:39:15;20.50;92.90
17762;DHT22;9005;48.838;10.112;2023-05-07T08:41:44;20.60;92.70
17762;DHT22;9005;48.838;10.112;2023-05-07T08:44:12;20.80;92.40
17762;DHT22;9005;48.838;10.112;2023-05-07T08:46:41;20.90;90.20
17762;DHT22;9005;48.838;10.112;2023-05-07T08:49:10;21.10;89.50
17762;DHT22;9005;48.838;10.112;2023-05-07T08:51:37;21.40;82.80
17762;DHT22;9005;48.838;10.112;2023-05-07T08:54:04;21.40;82.00
17762;DHT22;9005;48.838;10.112;2023-05-07T08:56:32;21.50;82.00
17762;DHT22;9005;48.838;10.112;2023-05-07T08:58:58;21.60;83.30
17762;DHT22;9005;48.838;10.112;2023-05-07T09:01:26;21.60;77.50
17762;DHT22;9005;48.838;10.112;2023-05-07T09:03:53;21.50;76.70
17762;DHT22;9005;48.838;10.112;2023-05-07T09:06:21;21.40;81.00
17762;DHT22;9005;48.838;10.112;2023-05-07T09:08:52;21.80;80.70
17762;DHT22;9005;48.838;10.112;2023-05-07T09:11:20;21.80;79.50
17762;DHT22;9005;48.838;10.112;2023-05-07T09:13:48;22.10;83.80
17762;DHT22;9005;48.838;10.112;2023-05-07T09:16:15;22.30;82.50
17762;DHT22;9005;48.838;10.112;2023-05-07T09:18:42;22.50;80.10
17762;DHT22;9005;48.838;10.112;2023-05-07T09:21:10;22.60;68.00
17762;DHT22;9005;48.838;10.112;2023-05-07T09:23:39;22.80;73.20
17762;DHT22;9005;48.838;10.112;2023-05-07T09:26:06;23.10;74.80
17762;DHT22;9005;48.838;10.112;2023-05-07T09:28:38;23.20;63.90
17762;DHT22;9005;48.838;10.112;2023-05-07T09:31:06;23.40;62.30
17762;DHT22;9005;48.838;10.112;2023-05-07T09:33:33;23.50;60.20
17762;DHT22;9005;48.838;10.112;2023-05-07T09:36:02;23.60;56.70
17762;DHT22;9005;48.838;10.112;2023-05-07T09:38:30;23.70;57.30
17762;DHT22;9005;48.838;10.112;2023-05-07T09:41:03;23.80;60.70
17762;DHT22;9005;48.838;10.112;2023-05-07T09:43:32;23.80;59.00
17762;DHT22;9005;48.838;10.112;2023-05-07T09:46:05;23.90;60.80
17762;DHT22;9005;48.838;10.112;2023-05-07T09:48:36;23.90;59.70
17762;DHT22;9005;48.838;10.112;2023-05-07T09:51:09;24.00;60.30
17762;DHT22;9005;48.838;10.112;2023-05-07T09:53:38;24.10;60.00
17762;DHT22;9005;48.838;10.112;2023-05-07T09:56:07;24.40;57.30
17762;DHT22;9005;48.838;10.112;2023-05-07T09:58:37;24.60;58.00
17762;DHT22;9005;48.838;10.112;2023-05-07T10:01:04;24.90;65.90
17762;DHT22;9005;48.838;10.112;2023-05-07T10:03:33;25.30;58.50
17762;DHT22;9005;48.838;10.112;2023-05-07T10:06:01;25.60;55.10
17762;DHT22;9005;48.838;10.112;2023-05-07T10:08:30;25.80;52.30
17762;DHT22;9005;48.838;10.112;2023-05-07T10:10:58;25.70;54.40
17762;DHT22;9005;48.838;10.112;2023-05-07T10:13:27;25.70;53.30
17762;DHT22;9005;48.838;10.112;2023-05-07T10:15:55;25.90;53.90
17762;DHT22;9005;48.838;10.112;2023-05-07T10:18:22;26.30;51.00
17762;DHT22;9005;48.838;10.112;2023-05-07T10:20:55;27.10;53.10
17762;DHT22;9005;48.838;10.112;2023-05-07T10:23:27;28.30;49.10
17762;DHT22;9005;48.838;10.112;2023-05-07T10:25:55;29.50;48.50
17762;DHT22;9005;48.838;10.112;2023-05-07T10:28:24;30.20;44.70
17762;DHT22;9005;48.838;10.112;2023-05-07T10:31:01;30.30;42.40
17762;DHT22;9005;48.838;10.112;2023-05-07T10:33:31;30.90;42.00
17762;DHT22;9005;48.838;10.112;2023-05-07T10:36:00;31.90;40.00
17762;DHT22;9005;48.838;10.112;2023-05-07T10:38:30;32.70;35.80
17762;DHT22;9005;48.838;10.112;2023-05-07T10:40:56;33.50;35.90
17762;DHT22;9005;48.838;10.112;2023-05-07T10:43:24;34.10;31.30
17762;DHT22;9005;48.838;10.112;2023-05-07T10:46:10;34.90;35.90
17762;DHT22;9005;48.838;10.112;2023-05-07T10:49:06;35.70;29.40
17762;DHT22;9005;48.838;10.112;2023-05-07T10:51:33;36.50;29.10
17762;DHT22;9005;48.838;10.112;2023-05-07T10:54:18;37.20;26.30
17762;DHT22;9005;48.838;10.112;2023-05-07T10:56:45;37.80;24.80
17762;DHT22;9005;48.838;10.112;2023-05-07T10:59:36;38.50;24.70
17762;DHT22;9005;48.838;10.112;2023-05-07T11:02:11;38.90;24.30
17762;DHT22;9005;48.838;10.112;2023-05-07T11:04:39;38.70;24.90
17762;DHT22;9005;48.838;10.112;2023-05-07T11:07:25;39.00;25.90
17762;DHT22;9005;48.838;10.112;2023-05-07T11:10:02;39.40;21.00
17762;DHT22;9005;48.838;10.112;2023-05-07T11:12:52;38.50;20.10
17762;DHT22;9005;48.838;10.112;2023-05-07T11:15:39;37.70;21.70
17762;DHT22;9005;48.838;10.112;2023-05-07T11:18:09;37.30;22.50
17762;DHT22;9005;48.838;10.112;2023-05-07T11:23:56;36.10;24.00
17762;DHT22;9005;48.838;10.112;2023-05-07T11:26:24;36.10;25.30
17762;DHT22;9005;48.838;10.112;2023-05-07T11:28:51;36.30;23.90
17762;DHT22;9005;48.838;10.112;2023-05-07T11:31:21;37.10;22.80
17762;DHT22;9005;48.838;10.112;2023-05-07T11:33:51;38.30;23.20
17762;DHT22;9005;48.838;10.112;2023-05-07T11:36:18;39.10;22.90
17762;DHT22;9005;48.838;10.112;2023-05-07T11:38:46;38.90;21.60
17762;DHT22;9005;48.838;10.112;2023-05-07T11:41:12;38.60;23.00
17762;DHT22;9005;48.838;10.112;2023-05-07T11:43:54;38.90;23.10
17762;DHT22;9005;48.838;10.112;2023-05-07T11:46:21;39.50;22.10
17762;DHT22;9005;48.838;10.112;2023-05-07T11:48:49;40.00;21.00
17762;DHT22;9005;48.838;10.112;2023-05-07T11:51:19;40.00;20.60
17762;DHT22;9005;48.838;10.112;2023-05-07T11:53:46;39.90;19.70
17762;DHT22;9005;48.838;10.112;2023-05-07T11:56:15;39.00;18.90
17762;DHT22;9005;48.838;10.112;2023-05-07T11:58:42;38.10;20.40
17762;DHT22;9005;48.838;10.112;2023-05-07T12:01:11;37.70;21.00
17762;DHT22;9005;48.838;10.112;2023-05-07T12:03:40;37.80;21.40
17762;DHT22;9005;48.838;10.112;2023-05-07T12:06:10;38.10;20.70
17762;DHT22;9005;48.838;10.112;2023-05-07T12:08:38;37.80;20.00
17762;DHT22;9005;48.838;10.112;2023-05-07T12:11:07;37.50;19.80
17762;DHT22;9005;48.838;10.112;2023-05-07T12:13:35;36.20;20.30
17762;DHT22;9005;48.838;10.112;2023-05-07T12:16:02;35.10;22.00
17762;DHT22;9005;48.838;10.112;2023-05-07T12:18:30;35.00;22.50
17762;DHT22;9005;48.838;10.112;2023-05-07T12:20:57;35.50;21.60
17762;DHT22;9005;48.838;10.112;2023-05-07T12:23:26;36.00;20.70
17762;DHT22;9005;48.838;10.112;2023-05-07T12:25:54;36.50;20.60
17762;DHT22;9005;48.838;10.112;2023-05-07T12:28:21;36.80;21.00
17762;DHT22;9005;48.838;10.112;2023-05-07T12:30:49;37.40;21.50
17762;DHT22;9005;48.838;10.112;2023-05-07T12:33:16;37.80;19.80
17762;DHT22;9005;48.838;10.112;2023-05-07T12:35:44;37.40;19.30
17762;DHT22;9005;48.838;10.112;2023-05-07T12:38:12;36.90;19.50
17762;DHT22;9005;48.838;10.112;2023-05-07T12:40:42;36.60;20.10
17762;DHT22;9005;48.838;10.112;2023-05-07T12:43:15;36.80;21.50
17762;DHT22;9005;48.838;10.112;2023-05-07T12:45:42;37.10;21.10
17762;DHT22;9005;48.838;10.112;2023-05-07T12:48:09;37.20;19.40
17762;DHT22;9005;48.838;10.112;2023-05-07T12:50:37;37.00;19.50
17762;DHT22;9005;48.838;10.112;2023-05-07T12:53:04;36.30;20.10
17762;DHT22;9005;48.838;10.112;2023-05-07T12:55:32;35.60;21.10
17762;DHT22;9005;48.838;10.112;2023-05-07T12:58:01;34.90;22.20
17762;DHT22;9005;48.838;10.112;2023-05-07T13:00:38;34.30;21.20
17762;DHT22;9005;48.838;10.112;2023-05-07T13:03:05;33.80;21.90
17762;DHT22;9005;48.838;10.112;2023-05-07T13:05:32;33.50;22.70
17762;DHT22;9005;48.838;10.112;2023-05-07T13:07:59;33.40;23.80
17762;DHT22;9005;48.838;10.112;2023-05-07T13:10:26;33.50;22.10
17762;DHT22;9005;48.838;10.112;2023-05-07T13:12:53;33.50;23.80
17762;DHT22;9005;48.838;10.112;2023-05-07T13:15:21;33.00;23.80
17762;DHT22;9005;48.838;10.112;2023-05-07T13:17:48;32.40;24.60
17762;DHT22;9005;48.838;10.112;2023-05-07T13:20:15;31.80;25.30
17762;DHT22;9005;48.838;10.112;2023-05-07T13:22:42;31.30;25.60
17762;DHT22;9005;48.838;10.112;2023-05-07T13:25:09;30.70;26.30
17762;DHT22;9005;48.838;10.112;2023-05-07T13:27:36;30.20;27.40
17762;DHT22;9005;48.838;10.112;2023-05-07T13:30:03;29.70;28.50
17762;DHT22;9005;48.838;10.112;2023-05-07T13:32:32;29.40;29.00
17762;DHT22;9005;48.838;10.112;2023-05-07T13:34:58;29.10;30.10
17762;DHT22;9005;48.838;10.112;2023-05-07T13:37:25;28.80;31.80
17762;DHT22;9005;48.838;10.112;2023-05-07T13:39:52;28.50;31.20
17762;DHT22;9005;48.838;10.112;2023-05-07T13:42:19;28.20;31.70
17762;DHT22;9005;48.838;10.112;2023-05-07T13:44:45;28.10;32.90
17762;DHT22;9005;48.838;10.112;2023-05-07T13:47:13;27.90;34.80
17762;DHT22;9005;48.838;10.112;2023-05-07T13:49:41;27.40;33.00
17762;DHT22;9005;48.838;10.112;2023-05-07T13:52:08;27.00;34.00
17762;DHT22;9005;48.838;10.112;2023-05-07T13:54:34;26.60;37.00
17762;DHT22;9005;48.838;10.112;2023-05-07T13:57:01;26.30;37.30
17762;DHT22;9005;48.838;10.112;2023-05-07T13:59:28;26.00;38.50
17762;DHT22;9005;48.838;10.112;2023-05-07T14:01:54;25.80;39.80
17762;DHT22;9005;48.838;10.112;2023-05-07T14:04:21;25.40;41.40
17762;DHT22;9005;48.838;10.112;2023-05-07T14:06:49;25.20;43.20
17762;DHT22;9005;48.838;10.112;2023-05-07T14:09:16;24.90;42.60
17762;DHT22;9005;48.838;10.112;2023-05-07T14:11:42;24.90;43.80
17762;DHT22;9005;48.838;10.112;2023-05-07T14:14:09;24.70;46.20
17762;DHT22;9005;48.838;10.112;2023-05-07T14:16:37;24.60;44.50
17762;DHT22;9005;48.838;10.112;2023-05-07T14:19:03;24.40;47.10
17762;DHT22;9005;48.838;10.112;2023-05-07T14:21:30;24.40;47.20
17762;DHT22;9005;48.838;10.112;2023-05-07T14:23:58;24.40;48.10
17762;DHT22;9005;48.838;10.112;2023-05-07T14:26:25;24.30;47.60
17762;DHT22;9005;48.838;10.112;2023-05-07T14:28:53;24.20;47.70
17762;DHT22;9005;48.838;10.112;2023-05-07T14:31:22;24.00;48.60
17762;DHT22;9005;48.838;10.112;2023-05-07T14:33:49;23.90;49.00
17762;DHT22;9005;48.838;10.112;2023-05-07T14:36:16;23.80;50.10
17762;DHT22;9005;48.838;10.112;2023-05-07T14:38:43;23.80;49.20
17762;DHT22;9005;48.838;10.112;2023-05-07T14:41:11;23.80;50.60
17762;DHT22;9005;48.838;10.112;2023-05-07T14:43:38;23.80;50.10
17762;DHT22;9005;48.838;10.112;2023-05-07T14:46:05;23.70;50.10
17762;DHT22;9005;48.838;10.112;2023-05-07T14:48:31;23.70;49.30
17762;DHT22;9005;48.838;10.112;2023-05-07T14:50:58;23.60;49.30
17762;DHT22;9005;48.838;10.112;2023-05-07T14:53:25;23.60;50.00
17762;DHT22;9005;48.838;10.112;2023-05-07T14:55:52;23.60;49.90
17762;DHT22;9005;48.838;10.112;2023-05-07T14:58:20;23.50;47.90
17762;DHT22;9005;48.838;10.112;2023-05-07T15:00:46;23.50;49.20
17762;DHT22;9005;48.838;10.112;2023-05-07T15:03:14;23.40;50.40
17762;DHT22;9005;48.838;10.112;2023-05-07T15:05:40;23.40;50.90
17762;DHT22;9005;48.838;10.112;2023-05-07T15:08:07;23.40;52.30
17762;DHT22;9005;48.838;10.112;2023-05-07T15:10:35;23.30;52.80
17762;DHT22;9005;48.838;10.112;2023-05-07T15:13:06;23.40;51.40
17762;DHT22;9005;48.838;10.112;2023-05-07T15:15:34;23.30;51.30
17762;DHT22;9005;48.838;10.112;2023-05-07T15:18:01;23.30;53.10
17762;DHT22;9005;48.838;10.112;2023-05-07T15:20:28;23.30;54.80
17762;DHT22;9005;48.838;10.112;2023-05-07T15:22:55;23.20;53.10
17762;DHT22;9005;48.838;10.112;2023-05-07T15:25:22;23.10;52.20
17762;DHT22;9005;48.838;10.112;2023-05-07T15:27:49;23.00;52.20
17762;DHT22;9005;48.838;10.112;2023-05-07T15:30:16;23.00;52.90
17762;DHT22;9005;48.838;10.112;2023-05-07T15:32:46;22.90;54.00
17762;DHT22;9005;48.838;10.112;2023-05-07T15:35:13;22.90;56.10
17762;DHT22;9005;48.838;10.112;2023-05-07T15:37:40;22.80;58.20
17762;DHT22;9005;48.838;10.112;2023-05-07T15:40:07;22.80;57.60
17762;DHT22;9005;48.838;10.112;2023-05-07T15:42:34;22.70;57.80